In Rescue
 
Open Full Screen Window  High Contrast Mode
Wind Gusting 00 knots
04
September 21, 2019 9:00 AM EDT
Weather Information
Wind Direction
  160 °
Wind Speed
  04 kt (5 mph)
Wind Gust
  00 kt (0 mph)
Altimeter
30.12 in
Visibility
10 SM
Temperature
20° C
68° F
Dewpoint
18° C
64° F
Humidity
88%
Sky Condition
Broken @ 6,000 ft
Scattered @ 4,900 ft
VFR

METAR KCVX 211300Z AUTO 16004KT 10SM SCT049 BKN060 20/18 A3012 RMK AO2 T01990182

FAA Disclaimer: The data displayed is for advisory purposes only and is not to be used for flight planning or operations.